Timothy Martin

Scout - Brentford
3 Dec 2028
Sunday
Process

Personality

Adaptability (1) Ambition (16) Controversy (5) Loyalty (13) Pressure (3) Professionalism (7) Sportsmanship (19) Temperament (1)

Profile

Coaching Style Democratic
License National B
Determination 13
Man Management 10
Motivating 6
Discipline 7
Job Satisfaction
100%
Fatigue
0%
Role Scout
Wage 71.4K p/w
Contract 14.03.2029

Performance

Behaviour Good
Training Effectiveness
43%
Player Development
60%
Injury Prevention
70%
Tactical Implementation
30%

Recent Events

Attended a recruitment meeting now
Attended a recruitment meeting now
Recommended a transfer target now
Recommended a transfer target now
Recommended a transfer target 7d ago
Recommended a transfer target 7d ago
Recommended a transfer target 7d ago
Recommended a transfer target 7d ago

Currently Monitoring

150
Player Club Status Ability Confidence Watched Last Observed Latest Vote
Giovanni Leoni Lincoln City Active 153 / 156 40% 2 14.08.2028 -
Alessio Insignito Spezia Active 98 / 122 40% 1 14.08.2028 -
Kasey McAteer Barnsley Lost 147 / 133 62% 1 24.07.2028 -
Shea Lacey Crystal Palace Lost 129 / 134 40% 3 05.06.2028 -
Miguel Figueiredo Benfica Active 124 / 123 40% 2 03.06.2028 -
Jan Bürger Northampton Town Active 122 / 133 40% 7 31.05.2028 -
Kerim Alajbegović Modena Active 137 / 133 40% 6 29.05.2028 -
Martim Cunha Porto Active 116 / 109 40% 8 28.05.2028 -
Mateus Mané Burnley Active 139 / 152 40% 7 28.05.2028 -
Eli Junior Kroupi Bournemouth Active 152 / 155 40% 8 27.05.2028 -
Ben Broggio Mansfield Town Active 107 / 125 40% 2 27.05.2028 -
Jake Evans Crewe Alexandra Active 104 / 132 40% 6 23.05.2028 -
Otto Stange Borussia Mönchengladbach Active 121 / 137 40% 2 22.05.2028 -
Rio Ngumoha Plymouth Argyle Active 136 / 140 40% 5 21.05.2028 -
Gabriel Mec Feirense Active 133 / 126 40% 3 21.05.2028 -
Fletcher Boyd Accrington Stanley Active 103 / 112 40% 2 17.05.2028 -
Giovanni Cantizano Fulham Active 127 / 119 40% 2 17.05.2028 -
Oskar Pietuszewski Estrela da Amadora Active 137 / 127 40% 4 16.05.2028 -
Trey Nyoni Rotherham United Active 142 / 140 40% 11 15.05.2028 -
Ryan Kavuma-McQueen Accrington Stanley Active 119 / 135 40% 4 14.05.2028 -
Gabe Forsyth Colchester United Active 113 / 112 40% 8 11.05.2028 -
Oscar Schwartau Norwich City Active 131 / 135 40% 3 05.05.2028 -
Sindre Walle Egeli Udinese Active 138 / 138 40% 6 04.05.2028 -
Omar Khedr Gillingham Active 117 / 111 40% 4 03.05.2028 -
İsak Vural Audace Cerignola Active 123 / 132 40% 1 03.05.2028 -
Leo Pecover Swindon Town Active 99 / 101 40% 3 01.05.2028 -
Amin Nabizada Exeter City Active 120 / 113 40% 1 29.04.2028 -
Ibrahim Fullah Charlton Athletic Active 119 / 117 40% 3 25.04.2028 -
Suleman Sani Werder Bremen Active 135 / 131 40% 1 22.04.2028 -
Christos Mouzakitis Hull City Active 142 / 145 40% 2 19.04.2028 -
Vincenzo Damiano Atalanta Active 101 / 111 40% 1 19.04.2028 -
Eduardo Fernandes Benfica Active 123 / 122 40% 1 15.04.2028 -
Luca Williams-Barnett Walsall Active 123 / 123 40% 3 10.04.2028 -
Bernardo Lima Porto Active 112 / 120 40% 4 08.04.2028 -
Henrique Carmo Sochi Active 117 / 138 40% 3 04.04.2028 -
Luke Brooke-Smith Chesterfield Active 98 / 108 40% 2 04.04.2028 -
André Miranda Porto Active 111 / 115 40% 3 03.04.2028 -
Daniel Banjaqui Benfica Active 129 / 127 40% 2 03.04.2028 -
Endrick Boca Juniors Active 153 / 167 40% 1 02.04.2028 -
Rafael Camacho Sporting CP Active 114 / 109 40% 1 01.04.2028 -
Lander Astiazarán Real Sociedad Active 108 / 109 40% 1 27.03.2028 -
Honest Ahanor Atalanta Active 142 / 138 40% 3 26.03.2028 -
João Abreu Porto Active 98 / 113 40% 1 24.03.2028 -
Josh Acheampong Everton Active 141 / 150 40% 7 21.03.2028 -
Louis Zecevic-John Colchester United Active 90 / 114 40% 1 19.03.2028 -
Tomás Peixoto Porto Active 95 / 111 40% 1 17.03.2028 -
Alphadjo Cissé Lecce Active 124 / 130 40% 1 14.03.2028 -
Babis Kostoulas Oxford United Active 141 / 144 40% 3 10.03.2028 -
Peter Amidu Acquah Asante Kotoko Active 92 / 105 40% 1 01.03.2028 -
Josh Nichols Oldham Athletic Active 130 / 123 40% 2 29.02.2028 -
Zane Albarus Shrewsbury Town Active 110 / 111 40% 1 27.02.2028 -
Mads Abrahamsen Zenit Penza Active 96 / 87 40% 1 22.02.2028 -
Julian Hall Real Salt Lake Active 95 / 127 40% 2 12.02.2028 -
Colin Guske Orlando City Active 93 / 107 40% 1 11.02.2028 -
Bazoumana Touré Newcastle United Active 141 / 156 40% 3 10.02.2028 -
Mao Hosoya Santos Active 134 / 135 67% 1 01.01.2028 Approve
Ayden Heaven Portsmouth Active 144 / 148 40% 4 31.12.2027 -
Tyler Fletcher Rotherham United Active 113 / 112 40% 3 29.12.2027 -
Victor Hernandez Santa Fe Active 127 / 122 40% 2 28.12.2027 -
Ruben Ramos LA Galaxy Active 105 / 120 40% 1 28.12.2027 -
Nana Nuhu WAFA Active 87 / 101 40% 2 27.12.2027 -
Gideon Manaseh Ikorodu City Active 94 / 100 40% 1 27.12.2027 -
Archie Gray Southampton Active 151 / 152 40% 2 26.12.2027 -
Jude Terry Los Angeles Football Club Active 101 / 89 40% 1 22.12.2027 -
Jonny Shore New York City Active 96 / 96 40% 2 19.12.2027 -
Harbor Miller LA Galaxy Active 104 / 98 40% 1 18.12.2027 -
Jayden Danns Bradford City Active 132 / 134 40% 1 17.12.2027 -
Pedro Baltika Active 151 / 147 40% 2 13.12.2027 -
Caleb Yirenkyi Coventry City Active 147 / 146 40% 4 09.12.2027 -
Matias Siltanen Malmo FF Active 119 / 136 40% 1 08.12.2027 -
Esquerdinha Notts County Active 125 / 128 40% 2 07.12.2027 -
Agustín Obregón River Plate Active 120 / 114 40% 1 07.12.2027 -
Olivier Mambwa Young Boys Active 109 / 125 40% 1 28.11.2027 -
Azizbek To'lqinbekov Bunyodkor Active 98 / 112 40% 1 25.11.2027 -
Ignacio Fernández Boston River Active 93 / 101 40% 1 24.11.2027 -
Somtochuwku Ezenabo Kwara United Active 95 / 102 40% 1 17.11.2027 -
Hosea Michael Remo Stars Active 81 / 91 40% 3 16.11.2027 -
Lucas Bergvall Tottenham Active 154 / 146 40% 3 06.11.2027 -
Joel Ezra Enyimba Active 93 / 105 40% 1 06.11.2027 -
Josh Torquato FC Dallas Active 99 / 108 40% 1 03.11.2027 -
Aaron Cresswell Stoke City Active 117 / 108 62% 1 12.07.2027 Approve
Eliás Montiel Borussia Dortmund Active 129 / 146 40% 2 21.06.2027 -
Kiani Inge Groningen Active 112 / 115 40% 1 21.06.2027 -
Sascha Britschgi AC Milan Active 121 / 127 40% 4 02.06.2027 -
Stanislav Agkatsev Brentford Active 132 / 133 66% 1 01.06.2027 Approve
Godwin Oham Warri Wolves Active 82 / 86 40% 1 30.05.2027 -
Nestory Irankunda Watford Active 117 / 129 40% 3 27.05.2027 -
Gonçalo Oliveira Benfica Active 102 / 117 40% 2 27.05.2027 -
Mattia Rutigliano Pro Vercelli Active 92 / 98 40% 1 27.05.2027 -
Ethan Williams Peterborough United Active 117 / 118 40% 2 26.05.2027 -
Riley Owen Stevenage Active 95 / 104 40% 1 26.05.2027 -
Mustapha Jawad Kano Pillars Active 90 / 88 40% 1 23.05.2027 -
Abubakar Garba Nasarawa United Active 93 / 103 40% 1 20.05.2027 -
Ezra Mayers West Ham United Active 123 / 124 40% 4 15.05.2027 -
Kirill Glebov CSKA Moscow Active 116 / 120 40% 2 15.05.2027 -
Riyad Idrissi Cagliari Active 121 / 125 40% 1 15.05.2027 -
Olivier Leroux Mouscron Active 104 / 103 40% 2 09.05.2027 -
Ronan Kpakio AC Milan Active 120 / 117 40% 2 08.05.2027 -
Daniel Dennis Ikorodu City Active 95 / 98 40% 2 03.05.2027 -
Issa Yusuf Shooting Stars Active 87 / 89 40% 1 25.04.2027 -
Maxim Radchenko Rostov Active 73 / 76 40% 1 22.04.2027 -
Konta Ismaily Active 77 / 110 40% 1 13.04.2027 -
Kobbie Mainoo Manchester United Active 151 / 156 40% 4 09.04.2027 -
Tiago Freitas Benfica Active 107 / 119 40% 2 09.04.2027 -
Jenson Jones Walsall Active 85 / 92 40% 1 07.04.2027 -
James Dornelly Peterborough United Active 95 / 106 40% 1 06.04.2027 -
Tommaso Cecotti Carpi Active 85 / 95 40% 2 01.04.2027 -
Amine Boukamir Charleroi Active 91 / 97 40% 1 28.03.2027 -
Cam Bragg West Ham United Active 117 / 128 40% 1 27.03.2027 -
Dean Jali Platinum Stars Active 89 / 92 40% 1 23.03.2027 -
Charlie Gray Fleetwood Town Active 94 / 97 40% 1 23.03.2027 -
Jacques Ekomié Wrexham Active 135 / 134 62% 1 06.01.2027 Approve
Nicolas Jackson Aston Villa Active 153 / 143 40% 2 31.12.2026 -
Kevin Fulham Active 160 / 139 40% 1 31.12.2026 -
Etiosa Ighodaro Kaizer Chiefs Active 126 / 116 40% 4 29.12.2026 -
Rodrigo Muniz Fulham Active 129 / 139 40% 5 29.12.2026 -
Tyrese Campbell Sheffield United Active 138 / 128 40% 1 28.12.2026 -
Jørgen Strand Larsen Brighton Active 144 / 147 40% 1 27.12.2026 -
Georginio Rutter Brighton Active 143 / 142 40% 3 26.12.2026 -
Yousef Salech Cardiff City Lost 127 / 121 40% 1 25.12.2026 -
Joe Gelhardt Hull City Active 131 / 127 40% 1 23.12.2026 -
Emanuel Emegha Chelsea Active 132 / 135 40% 2 21.12.2026 -
Wilson Isidor Sunderland Active 138 / 130 40% 1 17.12.2026 -
Edwin Asamoah Berekum Chelsea Active 81 / 88 40% 1 17.12.2026 -
Iliman N'Diaye Everton Active 153 / 159 40% 1 14.12.2026 Needs More Info
Wandile Duba ASO Chlef Active 115 / 111 40% 1 11.12.2026 -
Simphiwe Selepe Orlando Pirates Active 97 / 113 40% 1 10.12.2026 -
Bryan Mbeumo Manchester United Active 154 / 163 40% 1 09.12.2026 -
Philippe Ndinga Philadelphia Union Active 99 / 121 40% 1 09.12.2026 -
Cemran Dansin Orlando Pirates Active 99 / 129 40% 4 07.12.2026 -
Cody Gakpo Liverpool Active 150 / 166 40% 3 05.12.2026 -
Talles Magno New York City Active 141 / 118 40% 1 05.12.2026 -
Morrison Agyemang Charlotte Football Club Active 121 / 131 40% 1 03.12.2026 -
Ilyas Ansah Hull City Active 131 / 126 40% 1 23.11.2026 -
Aune Heggebø West Bromwich Albion Active 132 / 127 40% 1 18.11.2026 -
Bénie Traoré New York City Active 120 / 116 40% 1 17.11.2026 -
Kamaldeen Atiemo Wa All Stars Active 89 / 105 40% 1 16.11.2026 -
Leonardo Campana New England Revolution Active 122 / 120 40% 2 12.11.2026 -
Pedro Bravo FC Midtjylland Active 132 / 136 40% 1 09.11.2026 -
Matheus Cunha Manchester United Active 150 / 153 40% 1 06.11.2026 -
Kévin Denkey FC Cincinnati Active 140 / 115 40% 1 29.10.2026 -
Jesus Ferreira Seattle Sounders Active 113 / 117 40% 1 29.10.2026 -
Ayoub Jabbari FC Cincinnati Active 98 / 112 40% 1 22.10.2026 -
Mohamed-Ali Cho Hull City Active 133 / 141 40% 1 21.10.2026 -
Cheikh Sabaly Vancouver Whitecaps Active 128 / 118 40% 1 14.10.2026 -
Yahaya Ibrahim Plateau United Active 77 / 90 40% 1 08.10.2026 -
Moisés Caicedo Chelsea Active 160 / 167 40% 1 20.09.2026 -
Martín Zubimendi Arsenal Active 173 / 155 40% 1 17.09.2026 -
Florian Wirtz Liverpool Active 179 / 173 40% 1 15.09.2026 -
Quinten Timber Crystal Palace Active 144 / 157 40% 1 07.09.2026 -